Time;durP1;ratioP1;P1;durP2;ratioP2;P2;SDS_P1;SDS_P2;PMS_P1;PMS_P2;Temp;Humidity;BMP_temperature;BMP_pressure;BME280_temperature;BME280_humidity;BME280_pressure;Samples;Min_cycle;Max_cycle;Signal;HPM_P1;HPM_P2
2022/07/22 00:02:21;;;;;;;8.77;5.53;;;20.10;99.90;;;;;;5073779;28;20468;-82
2022/07/22 00:04:46;;;;;;;7.53;5.40;;;20.00;99.90;;;;;;5073045;28;20036;-82
2022/07/22 00:07:12;;;;;;;8.20;6.07;;;20.00;99.90;;;;;;5073852;28;20489;-82
2022/07/22 00:09:40;;;;;;;10.23;6.20;;;19.90;99.90;;;;;;5059595;28;20384;-82
2022/07/22 00:12:19;;;;;;;12.15;4.88;;;19.90;99.90;;;;;;5054462;28;20480;-83
2022/07/22 00:14:45;;;;;;;6.25;4.75;;;19.90;99.90;;;;;;5062192;28;20112;-83
2022/07/22 00:17:10;;;;;;;6.45;5.35;;;19.90;99.90;;;;;;5066545;28;20513;-83
2022/07/22 00:19:54;;;;;;;6.80;4.72;;;19.90;99.90;;;;;;5060407;28;20078;-82
2022/07/22 00:22:20;;;;;;;8.10;5.43;;;19.90;99.90;;;;;;5071364;28;20028;-82
2022/07/22 00:24:45;;;;;;;8.13;5.35;;;19.90;99.90;;;;;;5054465;28;20393;-82
2022/07/22 00:27:13;;;;;;;6.82;5.38;;;19.90;99.90;;;;;;5059632;28;20028;-82
2022/07/22 00:29:38;;;;;;;7.32;4.75;;;19.90;99.90;;;;;;5073030;28;20396;-82
2022/07/22 00:32:12;;;;;;;7.82;5.53;;;19.90;99.90;;;;;;5071370;28;20020;-82
2022/07/22 00:34:37;;;;;;;7.03;5.85;;;20.00;99.90;;;;;;5068811;28;20384;-82
2022/07/22 00:37:04;;;;;;;7.28;4.97;;;20.00;99.90;;;;;;5066369;28;20067;-83
2022/07/22 00:39:37;;;;;;;8.52;5.47;;;20.00;99.90;;;;;;5055096;28;20024;-82
2022/07/22 00:42:03;;;;;;;6.28;5.22;;;20.00;99.90;;;;;;5060737;28;20028;-82
2022/07/22 00:45:15;;;;;;;6.05;4.95;;;19.90;99.90;;;;;;5060108;28;20397;-82
2022/07/22 00:47:57;;;;;;;8.70;5.03;;;19.90;99.90;;;;;;5053793;28;20025;-83
2022/07/22 00:50:23;;;;;;;5.40;4.90;;;19.90;99.90;;;;;;5054067;28;20500;-82
2022/07/22 00:53:07;;;;;;;8.35;5.35;;;19.90;99.90;;;;;;5057488;28;20033;-82
2022/07/22 00:55:34;;;;;;;6.55;4.90;;;19.90;99.90;;;;;;5055256;28;20106;-82
2022/07/22 00:57:59;;;;;;;5.32;4.15;;;19.90;99.90;;;;;;5061991;28;20040;-82
2022/07/22 01:00:31;;;;;;;7.15;4.85;;;20.00;99.90;;;;;;5071028;28;20384;-82
2022/07/22 01:02:56;;;;;;;6.28;4.38;;;20.00;99.90;;;;;;5058810;28;20108;-82
2022/07/22 01:05:22;;;;;;;6.35;5.18;;;20.00;99.90;;;;;;5053793;28;20108;-82
2022/07/22 01:07:49;;;;;;;10.40;5.35;;;20.00;99.90;;;;;;5057084;28;20465;-82
2022/07/22 01:10:14;;;;;;;6.90;4.95;;;20.00;99.90;;;;;;5053659;28;20035;-82
2022/07/22 01:12:40;;;;;;;7.80;5.03;;;20.00;99.90;;;;;;5059732;28;20452;-82
2022/07/22 01:15:06;;;;;;;9.77;5.38;;;20.00;99.90;;;;;;5061969;28;20021;-82
2022/07/22 01:17:32;;;;;;;5.10;4.47;;;19.90;99.90;;;;;;5054221;28;20048;-82
2022/07/22 01:20:05;;;;;;;8.32;4.78;;;19.80;99.90;;;;;;5063076;28;20433;-82
2022/07/22 01:22:52;;;;;;;4.47;4.07;;;19.90;99.90;;;;;;5062466;28;20064;-82
2022/07/22 01:25:17;;;;;;;6.60;4.75;;;19.90;99.90;;;;;;5052005;28;20431;-82
2022/07/22 01:27:43;;;;;;;10.50;4.80;;;19.90;99.90;;;;;;5053962;28;20029;-82
2022/07/22 01:30:28;;;;;;;4.93;4.43;;;19.90;99.90;;;;;;5052945;28;20032;-82
2022/07/22 01:32:54;;;;;;;5.85;5.00;;;19.90;99.90;;;;;;5053234;28;20029;-82
2022/07/22 01:35:19;;;;;;;6.18;5.30;;;19.90;99.90;;;;;;5051719;28;20028;-82
2022/07/22 01:38:15;;;;;;;5.95;5.35;;;19.90;99.90;;;;;;5053877;28;20025;-82
2022/07/22 01:40:42;;;;;;;6.13;4.95;;;19.90;99.90;;;;;;5052878;28;20118;-82
2022/07/22 01:43:25;;;;;;;10.18;5.40;;;19.80;99.90;;;;;;5052918;28;20056;-82
2022/07/22 01:45:52;;;;;;;6.60;5.30;;;19.80;99.90;;;;;;5068378;28;20376;-82
2022/07/22 01:48:18;;;;;;;7.40;5.57;;;19.80;99.90;;;;;;5068557;28;20487;-82
2022/07/22 01:50:53;;;;;;;9.15;4.45;;;19.80;99.90;;;;;;5057783;28;20427;-83
2022/07/22 01:53:19;;;;;;;5.55;4.80;;;19.80;99.90;;;;;;5051880;28;20028;-82
2022/07/22 01:56:25;;;;;;;11.38;6.43;;;19.90;99.90;;;;;;5065930;28;20061;-82
2022/07/22 01:58:51;;;;;;;7.38;5.10;;;19.90;99.90;;;;;;5065136;28;20031;-82
2022/07/22 02:01:16;;;;;;;5.75;5.07;;;19.80;99.90;;;;;;5068398;28;20028;-82
2022/07/22 02:07:03;;;;;;;5.00;4.50;;;19.90;99.90;;;;;;5058210;28;20067;-82
2022/07/22 02:09:38;;;;;;;5.30;4.80;;;19.90;99.90;;;;;;5068510;28;20024;-83
2022/07/22 02:12:08;;;;;;;8.87;4.90;;;19.80;99.90;;;;;;5069471;28;20035;-82
2022/07/22 02:14:33;;;;;;;4.97;4.47;;;19.90;99.90;;;;;;5053930;28;20033;-82
2022/07/22 02:17:06;;;;;;;4.70;4.20;;;19.90;99.90;;;;;;5053370;28;20024;-82
2022/07/22 02:19:31;;;;;;;5.07;4.10;;;19.90;99.90;;;;;;5052165;28;20497;-82
2022/07/22 02:22:09;;;;;;;7.75;5.28;;;19.90;99.90;;;;;;5052492;28;20113;-82
2022/07/22 02:24:34;;;;;;;4.05;3.72;;;19.90;99.90;;;;;;5064941;28;20481;-83
2022/07/22 02:27:00;;;;;;;6.43;4.80;;;19.80;99.90;;;;;;5072321;28;20037;-82
2022/07/22 02:30:16;;;;;;;5.90;5.30;;;19.80;99.90;;;;;;5064298;28;20029;-82
2022/07/22 02:32:42;;;;;;;5.47;4.50;;;19.80;99.90;;;;;;5055303;28;20405;-83
2022/07/22 02:35:08;;;;;;;4.82;4.43;;;19.70;99.90;;;;;;5059287;28;20025;-82
2022/07/22 02:37:34;;;;;;;4.65;4.05;;;19.60;99.90;;;;;;5059300;28;20491;-82
2022/07/22 02:40:00;;;;;;;4.93;4.43;;;19.60;99.90;;;;;;5056620;28;20016;-83
2022/07/22 02:42:40;;;;;;;5.30;4.38;;;19.60;99.90;;;;;;5053093;28;20029;-83
2022/07/22 02:45:06;;;;;;;6.30;4.57;;;19.60;99.90;;;;;;5058340;28;20496;-83
2022/07/22 02:47:31;;;;;;;7.15;4.25;;;19.50;99.90;;;;;;5063942;28;20469;-83
2022/07/22 02:49:59;;;;;;;14.13;5.00;;;19.50;99.90;;;;;;5052207;28;20033;-82
2022/07/22 02:52:24;;;;;;;5.05;4.20;;;19.40;99.90;;;;;;5068836;28;20216;-82
2022/07/22 02:54:50;;;;;;;5.25;4.28;;;19.40;99.90;;;;;;5054237;28;20032;-82
2022/07/22 02:57:24;;;;;;;6.28;4.60;;;19.40;99.90;;;;;;5070302;28;20055;-82
2022/07/22 02:59:49;;;;;;;5.82;4.10;;;19.30;99.90;;;;;;5056543;28;20012;-83
2022/07/22 03:02:48;;;;;;;5.80;3.78;;;19.40;99.90;;;;;;5053417;28;20029;-83
2022/07/22 03:05:13;;;;;;;7.15;4.53;;;19.40;99.90;;;;;;5050513;28;20032;-82
2022/07/22 03:07:39;;;;;;;4.60;4.20;;;19.40;99.90;;;;;;5054028;28;20029;-83
2022/07/22 03:10:27;;;;;;;8.73;3.55;;;19.40;99.90;;;;;;5063392;28;20029;-83
2022/07/22 03:12:59;;;;;;;3.55;3.25;;;19.40;99.90;;;;;;5070575;28;20044;-83
2022/07/22 03:15:25;;;;;;;4.65;3.70;;;19.40;99.90;;;;;;5051920;28;20033;-83
2022/07/22 03:17:50;;;;;;;3.10;2.80;;;19.40;99.90;;;;;;5050904;28;20028;-82
2022/07/22 03:20:47;;;;;;;3.97;3.58;;;19.40;99.90;;;;;;5051927;28;20021;-83
2022/07/22 03:23:13;;;;;;;3.55;3.10;;;19.40;99.90;;;;;;5052564;28;20021;-82
2022/07/22 03:25:38;;;;;;;3.90;2.78;;;19.40;99.90;;;;;;5057797;28;20036;-82
2022/07/22 03:28:08;;;;;;;7.53;2.70;;;19.30;99.90;;;;;;5053623;28;20048;-82
2022/07/22 03:30:34;;;;;;;2.80;2.60;;;19.30;99.90;;;;;;5064030;28;20035;-82
2022/07/22 03:33:15;;;;;;;4.18;2.30;;;19.30;99.90;;;;;;5077494;28;20065;-83
2022/07/22 03:35:41;;;;;;;4.57;2.47;;;19.30;99.90;;;;;;5056704;28;20032;-83
2022/07/22 03:38:13;;;;;;;4.28;2.40;;;19.30;99.90;;;;;;5067969;28;20028;-82
2022/07/22 03:40:38;;;;;;;2.25;2.05;;;19.30;99.90;;;;;;5055138;28;20037;-82
2022/07/22 03:43:04;;;;;;;1.80;1.70;;;19.30;99.90;;;;;;5054853;28;20033;-82
2022/07/22 03:45:48;;;;;;;3.10;2.20;;;19.30;99.90;;;;;;5070277;28;20024;-82
2022/07/22 03:48:14;;;;;;;3.25;2.10;;;19.40;99.90;;;;;;5075468;28;20032;-82
2022/07/22 03:50:39;;;;;;;2.42;1.85;;;19.40;99.90;;;;;;5058952;28;20095;-83
2022/07/22 03:53:20;;;;;;;2.13;1.70;;;19.40;99.90;;;;;;5054038;28;20028;-83
2022/07/22 03:55:45;;;;;;;3.47;2.15;;;19.40;99.90;;;;;;5064024;28;20033;-83
2022/07/22 03:58:11;;;;;;;2.00;1.70;;;19.30;99.90;;;;;;5055829;28;20029;-82
2022/07/22 04:00:50;;;;;;;1.52;1.42;;;19.30;99.90;;;;;;5070750;28;20067;-82
2022/07/22 04:03:15;;;;;;;3.20;1.75;;;19.30;99.90;;;;;;5055878;28;20029;-81
2022/07/22 04:05:41;;;;;;;3.78;1.85;;;19.30;99.90;;;;;;5061331;28;20381;-81
2022/07/22 04:08:07;;;;;;;1.58;1.48;;;19.20;99.90;;;;;;5069971;28;20514;-81
2022/07/22 04:10:33;;;;;;;2.72;2.00;;;19.20;99.90;;;;;;5074248;28;20468;-81
2022/07/22 04:12:59;;;;;;;5.00;2.25;;;19.20;99.90;;;;;;5063845;28;20071;-81
2022/07/22 04:15:25;;;;;;;5.90;1.70;;;19.30;99.90;;;;;;5055012;28;20029;-80
2022/07/22 04:17:52;;;;;;;1.83;1.60;;;19.30;99.90;;;;;;5068420;28;20078;-81
2022/07/22 04:20:18;;;;;;;2.92;1.73;;;19.30;99.90;;;;;;5069872;28;20027;-80
2022/07/22 04:22:44;;;;;;;4.50;1.90;;;19.30;99.90;;;;;;5056556;28;20548;-81
2022/07/22 04:25:09;;;;;;;4.97;1.88;;;19.30;99.90;;;;;;5066545;28;20428;-81
2022/07/22 04:27:36;;;;;;;2.60;2.17;;;19.30;99.90;;;;;;5063755;28;20044;-81
2022/07/22 04:30:02;;;;;;;2.83;2.35;;;19.40;99.90;;;;;;5056888;28;20116;-82
2022/07/22 04:32:28;;;;;;;4.63;2.10;;;19.40;99.90;;;;;;5065013;28;20035;-81
2022/07/22 04:34:54;;;;;;;5.70;2.15;;;19.40;99.90;;;;;;5072909;28;20024;-80
2022/07/22 04:37:22;;;;;;;9.35;2.53;;;19.40;99.90;;;;;;5070523;28;20028;-80
2022/07/22 04:39:47;;;;;;;1.77;1.67;;;19.50;99.90;;;;;;5071680;28;20032;-81
2022/07/22 04:42:15;;;;;;;2.17;1.95;;;19.50;99.90;;;;;;5063786;28;20036;-81
2022/07/22 04:44:40;;;;;;;3.20;2.78;;;19.50;99.90;;;;;;5064588;28;20028;-81
2022/07/22 04:47:12;;;;;;;2.88;2.13;;;19.50;99.90;;;;;;5064481;28;20051;-81
2022/07/22 04:49:38;;;;;;;3.65;2.15;;;19.40;99.90;;;;;;5059400;28;20036;-81
2022/07/22 04:52:12;;;;;;;2.22;2.03;;;19.50;99.90;;;;;;5056454;28;20033;-81
2022/07/22 04:54:37;;;;;;;2.20;2.03;;;19.50;99.90;;;;;;5053476;28;20396;-81
2022/07/22 04:57:04;;;;;;;3.72;2.30;;;19.50;99.90;;;;;;5059269;28;20025;-80
2022/07/22 04:59:29;;;;;;;3.45;2.00;;;19.60;99.90;;;;;;5072409;28;20016;-80
2022/07/22 05:01:56;;;;;;;2.63;2.33;;;19.60;99.90;;;;;;5053286;28;20036;-80
2022/07/22 05:04:21;;;;;;;3.45;2.25;;;19.60;99.90;;;;;;5053877;28;20509;-80
2022/07/22 05:06:48;;;;;;;2.75;2.20;;;19.60;99.90;;;;;;5053485;28;20032;-80
2022/07/22 05:09:13;;;;;;;3.88;2.50;;;19.70;99.90;;;;;;5053797;28;20029;-80
2022/07/22 05:11:40;;;;;;;4.80;2.20;;;19.60;99.90;;;;;;5053843;28;20025;-80
2022/07/22 05:14:05;;;;;;;5.07;2.30;;;19.70;99.90;;;;;;5053712;28;20056;-80
2022/07/22 05:16:39;;;;;;;1.60;1.50;;;19.70;99.90;;;;;;5053674;28;20028;-80
2022/07/22 05:19:05;;;;;;;3.53;2.00;;;19.70;99.90;;;;;;5053718;28;20693;-80
2022/07/22 05:21:31;;;;;;;2.85;2.10;;;19.70;99.90;;;;;;5061231;28;20070;-80
2022/07/22 05:23:56;;;;;;;3.20;2.00;;;19.70;99.90;;;;;;5054314;28;20116;-80
2022/07/22 05:26:24;;;;;;;2.53;1.95;;;19.70;99.90;;;;;;5060722;28;20155;-80
2022/07/22 05:28:50;;;;;;;2.22;2.03;;;19.70;99.90;;;;;;5059077;28;20031;-80
2022/07/22 05:31:16;;;;;;;3.65;1.90;;;19.80;99.90;;;;;;5093355;28;20480;-80
2022/07/22 05:33:42;;;;;;;4.40;2.03;;;19.80;99.90;;;;;;5093631;28;20031;-80
2022/07/22 05:36:09;;;;;;;2.38;1.95;;;19.80;99.90;;;;;;5093097;28;20017;-80
2022/07/22 05:38:35;;;;;;;2.50;2.30;;;19.90;99.90;;;;;;5092164;28;20191;-80
2022/07/22 05:41:04;;;;;;;4.63;1.95;;;19.90;99.90;;;;;;5088655;28;20063;-80
2022/07/22 05:43:31;;;;;;;1.80;1.70;;;19.80;99.90;;;;;;5073241;28;20036;-80
2022/07/22 05:45:57;;;;;;;2.70;1.58;;;19.80;99.90;;;;;;5072903;28;20411;-80
2022/07/22 05:48:23;;;;;;;1.80;1.70;;;19.90;99.90;;;;;;5055883;28;20044;-80
2022/07/22 05:50:48;;;;;;;2.63;1.60;;;19.90;99.90;;;;;;5062598;28;20016;-80
2022/07/22 05:53:15;;;;;;;1.38;1.27;;;19.90;99.90;;;;;;5053504;28;20053;-81
2022/07/22 05:55:40;;;;;;;1.95;1.60;;;19.90;99.90;;;;;;5052842;28;20102;-80
2022/07/22 05:58:08;;;;;;;2.53;1.20;;;19.90;99.90;;;;;;5061599;28;20701;-80
2022/07/22 06:00:34;;;;;;;2.33;1.30;;;20.10;99.90;;;;;;5071719;28;20445;-80
2022/07/22 06:03:05;;;;;;;2.05;0.90;;;20.10;99.90;;;;;;5072574;28;20071;-80
2022/07/22 06:05:31;;;;;;;0.80;0.80;;;20.10;99.90;;;;;;5073193;28;20028;-81
2022/07/22 06:08:00;;;;;;;1.70;1.00;;;20.20;99.90;;;;;;5055231;28;20033;-80
2022/07/22 06:10:26;;;;;;;1.23;1.08;;;20.20;99.90;;;;;;5070616;28;20472;-80
2022/07/22 06:12:51;;;;;;;1.27;0.98;;;20.20;99.90;;;;;;5071237;28;20079;-81
2022/07/22 06:15:18;;;;;;;1.50;0.93;;;20.20;99.90;;;;;;5066800;28;20071;-80
2022/07/22 06:17:43;;;;;;;1.58;1.00;;;20.20;99.90;;;;;;5071545;28;20033;-81
2022/07/22 06:20:09;;;;;;;0.73;0.73;;;20.20;99.90;;;;;;5072198;28;20025;-81
2022/07/22 06:22:34;;;;;;;0.80;0.80;;;20.30;99.90;;;;;;5070620;28;20052;-81
2022/07/22 06:25:01;;;;;;;0.90;0.70;;;20.30;99.90;;;;;;5071565;28;20040;-80
2022/07/22 06:27:26;;;;;;;0.77;0.68;;;20.30;99.90;;;;;;5071730;28;20103;-80
2022/07/22 06:29:52;;;;;;;1.48;0.82;;;20.30;99.90;;;;;;5065273;28;20104;-81
2022/07/22 06:32:17;;;;;;;0.68;0.68;;;20.30;99.90;;;;;;5068948;28;20586;-81
2022/07/22 06:34:44;;;;;;;5.43;2.20;;;20.30;99.90;;;;;;5061047;28;20060;-80
2022/07/22 06:37:10;;;;;;;4.03;1.85;;;20.30;99.90;;;;;;5052138;28;20032;-80
2022/07/22 06:39:37;;;;;;;4.30;1.40;;;20.20;99.90;;;;;;5051189;28;20029;-80
2022/07/22 06:42:03;;;;;;;1.52;1.42;;;20.00;99.90;;;;;;5056277;28;20146;-80
2022/07/22 06:44:29;;;;;;;2.63;1.80;;;19.80;99.90;;;;;;5052416;28;20123;-80
2022/07/22 06:46:54;;;;;;;1.60;1.50;;;19.60;99.90;;;;;;5052190;28;20071;-80
2022/07/22 06:49:25;;;;;;;1.60;1.50;;;19.40;99.90;;;;;;5054517;28;20060;-81
2022/07/22 06:51:50;;;;;;;2.33;1.88;;;19.30;99.90;;;;;;5072193;28;20495;-81
2022/07/22 06:54:17;;;;;;;8.13;3.22;;;19.10;99.90;;;;;;5069419;28;20028;-81
2022/07/22 06:56:42;;;;;;;3.97;3.35;;;18.90;99.90;;;;;;5072507;28;20028;-80
2022/07/22 06:59:09;;;;;;;3.85;3.20;;;18.80;99.90;;;;;;5068745;28;20017;-81
2022/07/22 07:01:34;;;;;;;3.92;3.33;;;18.80;99.90;;;;;;5057816;28;20037;-80
2022/07/22 07:04:02;;;;;;;3.75;3.42;;;18.70;99.90;;;;;;5072467;28;20024;-80
2022/07/22 07:06:28;;;;;;;7.13;4.40;;;18.60;99.90;;;;;;5065149;28;20029;-81
2022/07/22 07:08:53;;;;;;;4.18;3.67;;;18.50;99.90;;;;;;5071120;28;20028;-80
2022/07/22 07:11:19;;;;;;;4.55;3.97;;;18.50;99.90;;;;;;5065900;28;20491;-80
2022/07/22 07:13:44;;;;;;;5.18;3.63;;;18.50;99.90;;;;;;5075894;28;20392;-80
2022/07/22 07:16:11;;;;;;;8.68;6.13;;;18.40;99.90;;;;;;5076018;28;20021;-80
2022/07/22 07:18:36;;;;;;;6.70;5.20;;;18.50;99.90;;;;;;5075970;28;20035;-80
2022/07/22 07:21:05;;;;;;;6.20;5.60;;;18.50;99.90;;;;;;5074294;28;20020;-80
2022/07/22 07:23:31;;;;;;;8.07;5.68;;;18.50;99.90;;;;;;5074847;28;20094;-81
2022/07/22 07:25:58;;;;;;;7.50;5.13;;;18.40;99.90;;;;;;5074491;28;20024;-80
2022/07/22 07:28:23;;;;;;;8.27;5.97;;;18.50;99.90;;;;;;5075912;28;20024;-80
2022/07/22 07:30:50;;;;;;;9.52;6.05;;;18.50;99.90;;;;;;5075738;28;20036;-81
2022/07/22 07:33:16;;;;;;;7.20;5.78;;;18.60;99.90;;;;;;5075769;28;20027;-80
2022/07/22 07:35:42;;;;;;;5.22;4.68;;;18.60;99.90;;;;;;5074489;28;20021;-81
2022/07/22 07:38:07;;;;;;;5.82;5.15;;;18.50;99.90;;;;;;5075181;28;20032;-81
2022/07/22 07:40:41;;;;;;;5.82;4.00;;;18.50;99.90;;;;;;5075625;28;20035;-81
2022/07/22 07:43:06;;;;;;;7.35;4.82;;;18.60;99.90;;;;;;5075531;28;20104;-81
2022/07/22 07:45:32;;;;;;;8.38;4.53;;;18.60;99.90;;;;;;5075347;28;20166;-81
2022/07/22 07:47:59;;;;;;;6.55;4.70;;;18.50;99.90;;;;;;5075449;28;20389;-81
2022/07/22 07:50:25;;;;;;;6.13;4.72;;;18.60;99.90;;;;;;5075488;28;20404;-81
2022/07/22 07:52:51;;;;;;;6.05;4.40;;;18.50;99.90;;;;;;5074940;28;20541;-80
2022/07/22 07:55:17;;;;;;;9.18;4.32;;;18.50;99.90;;;;;;5074949;28;20070;-81
2022/07/22 07:57:45;;;;;;;8.23;5.93;;;18.50;99.90;;;;;;5075323;28;20485;-81
2022/07/22 08:00:14;;;;;;;7.40;5.65;;;18.50;99.90;;;;;;5074384;28;20028;-82
2022/07/22 08:02:39;;;;;;;9.73;5.93;;;18.50;99.90;;;;;;5054988;28;20021;-83
2022/07/22 08:05:09;;;;;;;5.35;4.85;;;18.50;99.90;;;;;;5065804;28;20401;-82
2022/07/22 08:07:35;;;;;;;7.25;5.47;;;18.50;99.90;;;;;;5060477;28;20119;-81
2022/07/22 08:10:19;;;;;;;5.65;5.10;;;18.50;99.90;;;;;;5075007;28;20112;-81
2022/07/22 08:12:47;;;;;;;9.02;6.05;;;18.50;99.90;;;;;;5067489;28;20051;-81
2022/07/22 08:15:12;;;;;;;7.25;5.20;;;18.50;99.90;;;;;;5073534;28;20135;-82
2022/07/22 08:17:44;;;;;;;6.40;4.72;;;18.50;99.90;;;;;;5073579;28;20049;-81
2022/07/22 08:20:10;;;;;;;10.35;6.28;;;18.50;99.90;;;;;;5074701;28;20017;-81
2022/07/22 08:22:37;;;;;;;6.88;3.92;;;18.50;99.90;;;;;;5073664;28;20035;-81
2022/07/22 08:25:04;;;;;;;9.05;6.30;;;18.50;99.90;;;;;;5074627;28;20031;-81
2022/07/22 08:27:30;;;;;;;7.25;6.15;;;18.50;99.90;;;;;;5074746;28;20480;-81
2022/07/22 08:29:56;;;;;;;9.48;6.40;;;18.60;99.90;;;;;;5055451;28;20039;-81
2022/07/22 08:32:22;;;;;;;4.80;4.40;;;18.50;99.90;;;;;;5057852;28;20033;-81
2022/07/22 08:34:47;;;;;;;6.50;5.18;;;18.50;99.90;;;;;;5053883;28;20013;-82
2022/07/22 08:37:13;;;;;;;7.45;5.22;;;18.50;99.90;;;;;;5054248;28;20389;-82
2022/07/22 08:39:38;;;;;;;7.28;5.45;;;18.50;99.90;;;;;;5054410;28;20025;-82
2022/07/22 08:42:04;;;;;;;6.57;5.57;;;18.50;99.90;;;;;;5053397;28;20025;-82
2022/07/22 08:44:39;;;;;;;7.90;5.82;;;18.50;99.90;;;;;;5052912;28;20025;-82
2022/07/22 08:47:05;;;;;;;6.78;5.97;;;18.50;99.90;;;;;;5054066;28;20036;-81
2022/07/22 08:49:38;;;;;;;7.50;5.97;;;18.50;99.90;;;;;;5054487;28;20028;-81
2022/07/22 08:52:03;;;;;;;10.10;5.90;;;18.50;99.90;;;;;;5052739;28;20029;-81
2022/07/22 08:54:31;;;;;;;7.32;5.45;;;18.60;99.90;;;;;;5053461;28;20017;-81
2022/07/22 08:56:57;;;;;;;6.28;5.75;;;18.60;99.90;;;;;;5054376;28;20108;-81
2022/07/22 08:59:25;;;;;;;11.57;5.50;;;18.60;99.90;;;;;;5070708;28;20104;-81
2022/07/22 09:02:11;;;;;;;7.50;5.53;;;18.60;99.90;;;;;;5068474;28;20029;-82
2022/07/22 09:05:05;;;;;;;7.53;5.00;;;18.60;99.90;;;;;;5062406;28;20025;-81
2022/07/22 09:07:36;;;;;;;4.88;4.47;;;18.60;99.90;;;;;;5053541;28;20452;-81
2022/07/22 09:10:04;;;;;;;5.80;4.90;;;18.70;99.90;;;;;;5053868;28;20025;-81
2022/07/22 09:12:31;;;;;;;5.57;4.68;;;18.70;99.90;;;;;;5051948;28;20036;-82
2022/07/22 09:15:03;;;;;;;4.72;3.60;;;18.70;99.90;;;;;;5053833;28;20029;-81
2022/07/22 09:17:45;;;;;;;3.67;3.38;;;18.80;99.90;;;;;;5053898;28;20113;-81
2022/07/22 09:20:18;;;;;;;5.85;4.85;;;18.90;99.90;;;;;;5063745;28;20526;-82
2022/07/22 09:22:59;;;;;;;4.93;4.53;;;18.90;99.90;;;;;;5060761;28;20538;-82
2022/07/22 09:25:42;;;;;;;7.22;4.53;;;19.00;99.90;;;;;;5053948;28;20055;-82
2022/07/22 09:28:07;;;;;;;3.97;3.60;;;19.00;99.90;;;;;;5055003;28;20032;-82
2022/07/22 09:30:39;;;;;;;7.40;3.88;;;19.10;99.90;;;;;;5061990;28;20033;-81
2022/07/22 09:33:06;;;;;;;5.03;4.55;;;19.10;99.90;;;;;;5068326;28;20040;-82
2022/07/22 09:35:33;;;;;;;7.82;5.40;;;19.20;99.90;;;;;;5054447;28;20029;-81
2022/07/22 09:38:01;;;;;;;5.57;5.07;;;19.40;99.90;;;;;;5051886;28;20074;-82
2022/07/22 09:40:30;;;;;;;5.07;4.25;;;19.40;99.90;;;;;;5069167;28;20025;-81
2022/07/22 09:42:59;;;;;;;5.65;4.65;;;19.40;99.90;;;;;;5061473;28;20065;-81
2022/07/22 09:45:27;;;;;;;4.07;3.53;;;19.50;99.90;;;;;;5053094;28;20059;-81
2022/07/22 09:48:01;;;;;;;6.10;3.40;;;19.50;99.90;;;;;;5066152;28;20484;-81
2022/07/22 09:50:31;;;;;;;3.85;3.50;;;19.50;99.90;;;;;;5060475;28;20017;-81
2022/07/22 09:53:00;;;;;;;8.75;3.90;;;19.60;99.90;;;;;;5069320;28;20036;-81
2022/07/22 09:55:27;;;;;;;5.18;3.88;;;19.70;99.90;;;;;;5061333;28;20028;-81
2022/07/22 09:57:59;;;;;;;4.10;3.78;;;19.70;99.90;;;;;;5093349;28;20032;-81
2022/07/22 10:00:27;;;;;;;3.53;3.20;;;19.80;99.90;;;;;;5092165;28;20031;-81
2022/07/22 10:03:10;;;;;;;5.70;4.22;;;19.80;99.90;;;;;;5093303;28;20048;-81
2022/07/22 10:05:38;;;;;;;4.70;4.30;;;19.80;99.90;;;;;;5092638;28;20078;-81
2022/07/22 10:08:21;;;;;;;3.90;3.50;;;19.80;99.90;;;;;;5075820;28;20388;-81
2022/07/22 10:10:48;;;;;;;3.72;3.40;;;19.80;99.90;;;;;;5072426;28;20443;-82
2022/07/22 10:13:13;;;;;;;3.65;2.42;;;19.90;99.90;;;;;;5057477;28;20064;-82
2022/07/22 10:15:40;;;;;;;3.80;3.42;;;20.10;99.90;;;;;;5052549;28;20037;-81
2022/07/22 10:18:25;;;;;;;3.33;2.50;;;20.20;99.90;;;;;;5052822;28;20040;-82
2022/07/22 10:21:01;;;;;;;3.00;2.70;;;20.20;99.90;;;;;;5056218;28;20052;-82
2022/07/22 10:23:27;;;;;;;3.80;2.15;;;20.30;99.90;;;;;;5054154;28;20466;-82
2022/07/22 10:25:58;;;;;;;5.15;2.17;;;20.30;99.90;;;;;;5091414;28;20028;-82
2022/07/22 10:28:35;;;;;;;3.30;2.97;;;20.30;99.90;;;;;;5075235;28;20020;-82
2022/07/22 10:31:22;;;;;;;5.28;2.38;;;20.40;99.90;;;;;;5052663;28;20033;-82
2022/07/22 10:33:56;;;;;;;3.10;2.47;;;20.40;99.90;;;;;;5052479;28;20027;-82
2022/07/22 10:36:42;;;;;;;3.10;2.80;;;20.40;99.90;;;;;;5059325;28;20411;-82
2022/07/22 10:39:11;;;;;;;2.38;2.17;;;20.50;99.90;;;;;;5071260;28;20059;-82
2022/07/22 10:41:39;;;;;;;2.20;1.88;;;20.60;99.90;;;;;;5051300;28;20048;-81
2022/07/22 10:44:08;;;;;;;2.35;2.22;;;20.60;99.90;;;;;;5065362;28;20447;-82
2022/07/22 10:46:58;;;;;;;3.08;2.40;;;20.60;99.90;;;;;;5054933;28;20067;-82
2022/07/22 10:49:25;;;;;;;3.95;2.40;;;20.60;99.90;;;;;;5056467;28;20032;-82
2022/07/22 10:52:32;;;;;;;3.65;1.58;;;20.60;99.90;;;;;;5056039;28;20029;-81
2022/07/22 10:55:16;;;;;;;3.00;2.25;;;20.60;99.90;;;;;;5054907;28;20021;-82
2022/07/22 10:57:42;;;;;;;2.20;2.00;;;20.60;99.90;;;;;;5056235;28;20025;-81
2022/07/22 11:00:08;;;;;;;5.03;2.17;;;20.60;99.90;;;;;;5056258;28;20382;-81
2022/07/22 11:02:37;;;;;;;5.15;1.90;;;20.60;99.90;;;;;;5055202;28;20464;-81
2022/07/22 11:05:03;;;;;;;2.85;2.20;;;20.60;99.90;;;;;;5056175;28;20072;-81
2022/07/22 11:07:30;;;;;;;2.13;1.90;;;20.70;99.90;;;;;;5055960;28;20033;-81
2022/07/22 11:10:25;;;;;;;2.15;1.95;;;20.70;99.90;;;;;;5055946;28;20021;-81
2022/07/22 11:12:51;;;;;;;2.30;1.70;;;20.60;99.90;;;;;;5056061;28;20071;-81
2022/07/22 11:15:17;;;;;;;2.08;1.92;;;20.60;99.90;;;;;;5055929;28;20546;-82
2022/07/22 11:17:43;;;;;;;3.83;2.05;;;20.60;99.90;;;;;;5056088;28;20025;-81
2022/07/22 11:20:12;;;;;;;2.28;1.95;;;20.70;99.90;;;;;;5055566;28;20021;-81
2022/07/22 11:22:41;;;;;;;1.92;1.80;;;20.70;99.90;;;;;;5055730;28;20025;-82
2022/07/22 11:25:10;;;;;;;2.58;2.38;;;20.70;99.90;;;;;;5055914;28;20029;-81
2022/07/22 11:27:52;;;;;;;2.15;2.05;;;20.80;99.90;;;;;;5056126;28;20040;-81
2022/07/22 11:30:17;;;;;;;2.67;2.45;;;20.70;99.90;;;;;;5067951;28;20036;-81
2022/07/22 11:32:44;;;;;;;1.73;1.63;;;20.80;99.90;;;;;;5075098;28;20083;-82
2022/07/22 11:35:12;;;;;;;5.75;2.20;;;20.80;99.90;;;;;;5064215;28;20021;-82
2022/07/22 11:37:57;;;;;;;1.70;1.58;;;20.90;99.90;;;;;;5056987;28;20029;-82
2022/07/22 11:40:22;;;;;;;6.15;1.80;;;21.00;99.90;;;;;;5061692;28;20027;-82
2022/07/22 11:43:01;;;;;;;1.70;1.60;;;21.00;99.90;;;;;;5058620;28;20111;-82
2022/07/22 11:45:27;;;;;;;2.42;2.22;;;21.10;99.90;;;;;;5055785;28;20029;-82
2022/07/22 11:47:52;;;;;;;2.05;1.88;;;21.20;99.90;;;;;;5056261;28;20443;-82
2022/07/22 11:50:34;;;;;;;1.50;1.40;;;21.30;99.90;;;;;;5065026;28;20037;-82
2022/07/22 11:53:02;;;;;;;2.78;2.42;;;21.20;99.90;;;;;;5056844;28;20029;-82
2022/07/22 11:55:30;;;;;;;5.63;1.90;;;21.20;99.90;;;;;;5065750;28;20056;-81
2022/07/22 11:57:55;;;;;;;2.22;1.50;;;21.20;99.90;;;;;;5071452;28;20035;-82
2022/07/22 12:00:23;;;;;;;7.13;2.05;;;21.10;99.90;;;;;;5059821;28;20449;-81
2022/07/22 12:02:49;;;;;;;1.70;1.60;;;21.20;99.90;;;;;;5056423;28;20043;-82
2022/07/22 12:05:15;;;;;;;1.50;1.40;;;21.20;99.90;;;;;;5054597;28;20123;-81
2022/07/22 12:07:40;;;;;;;2.25;1.52;;;21.20;99.90;;;;;;5055312;28;20025;-81
2022/07/22 12:10:08;;;;;;;1.60;1.50;;;21.20;99.90;;;;;;5056767;28;20029;-81
2022/07/22 12:12:46;;;;;;;7.68;2.25;;;21.20;99.90;;;;;;5073642;28;20107;-81
2022/07/22 12:15:12;;;;;;;3.33;1.85;;;21.30;99.90;;;;;;5063656;28;20033;-81
2022/07/22 12:17:43;;;;;;;2.00;1.58;;;21.30;99.90;;;;;;5055092;28;20399;-81
2022/07/22 12:20:12;;;;;;;2.42;1.70;;;21.30;99.90;;;;;;5056211;28;20499;-81
2022/07/22 12:22:45;;;;;;;4.22;1.77;;;21.30;99.90;;;;;;5060725;28;20048;-82
2022/07/22 12:25:12;;;;;;;5.70;2.03;;;21.30;99.90;;;;;;5059258;28;20385;-81
2022/07/22 12:27:38;;;;;;;2.95;2.03;;;21.30;99.90;;;;;;5074683;28;20511;-81
2022/07/22 12:30:14;;;;;;;7.95;2.67;;;21.40;99.90;;;;;;5067141;28;20082;-81
2022/07/22 12:32:47;;;;;;;3.63;2.45;;;21.50;99.90;;;;;;5064667;28;20384;-81
2022/07/22 12:35:15;;;;;;;6.40;2.55;;;21.40;99.90;;;;;;5068589;28;20471;-81
2022/07/22 12:37:42;;;;;;;4.05;2.50;;;21.50;99.90;;;;;;5066843;28;20021;-81
2022/07/22 12:40:22;;;;;;;2.08;1.88;;;21.50;99.90;;;;;;5063537;28;20099;-81
2022/07/22 12:43:04;;;;;;;6.63;2.45;;;21.50;99.90;;;;;;5054413;28;20087;-81
2022/07/22 12:45:34;;;;;;;4.80;2.55;;;21.40;99.90;;;;;;5054021;28;20507;-81
2022/07/22 12:48:06;;;;;;;2.95;2.60;;;21.40;99.90;;;;;;5053060;28;20435;-81
2022/07/22 12:50:39;;;;;;;7.30;2.80;;;21.40;99.90;;;;;;5070358;28;20102;-81
2022/07/22 12:53:17;;;;;;;6.57;2.45;;;21.40;99.90;;;;;;5067132;28;20111;-81
2022/07/22 12:55:48;;;;;;;5.05;2.40;;;21.40;99.90;;;;;;5072875;28;20028;-81
2022/07/22 12:58:15;;;;;;;3.65;2.50;;;21.30;99.90;;;;;;5074069;28;20066;-81
2022/07/22 13:00:42;;;;;;;3.53;2.67;;;21.30;99.90;;;;;;5073945;28;20040;-81
2022/07/22 13:03:08;;;;;;;2.95;2.70;;;21.30;99.90;;;;;;5073847;28;20512;-80